createdAt,value
2023-12-27T00:01:02.466Z,22.27
2023-12-27T00:03:36.303Z,23.20
2023-12-27T00:06:07.672Z,21.27
2023-12-27T00:08:40.339Z,22.05
2023-12-27T00:11:10.822Z,20.77
2023-12-27T00:13:41.407Z,20.38
2023-12-27T00:16:12.063Z,19.60
2023-12-27T00:18:44.665Z,21.08
2023-12-27T00:21:15.389Z,22.08
2023-12-27T00:23:45.996Z,23.92
2023-12-27T00:26:17.013Z,23.45
2023-12-27T00:28:50.650Z,22.90
2023-12-27T00:31:21.261Z,21.95
2023-12-27T00:33:53.792Z,23.83
2023-12-27T00:36:31.665Z,22.27
2023-12-27T00:39:04.109Z,22.80
2023-12-27T00:41:34.780Z,21.67
2023-12-27T00:44:05.534Z,23.60
2023-12-27T00:46:36.085Z,22.35
2023-12-27T00:49:22.166Z,26.42
2023-12-27T00:51:55.397Z,37.65
2023-12-27T00:54:28.423Z,29.23
2023-12-27T00:57:01.671Z,21.98
2023-12-27T00:59:35.126Z,23.98
2023-12-27T01:02:06.154Z,20.83
2023-12-27T01:04:47.702Z,20.60
2023-12-27T01:07:18.946Z,20.27
2023-12-27T01:09:52.379Z,20.08
2023-12-27T01:12:23.558Z,21.08
2023-12-27T01:15:00.305Z,20.95
2023-12-27T01:17:30.834Z,21.08
2023-12-27T01:20:08.169Z,21.60
2023-12-27T01:22:38.627Z,20.92
2023-12-27T01:25:11.650Z,22.70
2023-12-27T01:27:42.213Z,21.30
2023-12-27T01:30:13.524Z,23.98
2023-12-27T01:32:44.160Z,20.77
2023-12-27T01:35:17.025Z,20.48
2023-12-27T01:40:20.780Z,20.33
2023-12-27T01:42:51.240Z,20.83
2023-12-27T01:45:21.706Z,21.58
2023-12-27T01:47:52.402Z,20.63
2023-12-27T01:50:26.765Z,20.90
2023-12-27T01:52:57.734Z,22.85
2023-12-27T01:55:28.390Z,20.35
2023-12-27T01:57:59.246Z,20.27
2023-12-27T02:00:30.020Z,21.80
2023-12-27T02:03:00.801Z,20.70
2023-12-27T02:05:34.305Z,22.10
2023-12-27T02:08:06.095Z,20.13
2023-12-27T02:10:41.074Z,19.75
2023-12-27T02:13:11.734Z,19.83
2023-12-27T02:15:42.277Z,25.35
2023-12-27T02:18:14.443Z,19.13
2023-12-27T02:20:47.693Z,18.08
2023-12-27T02:23:20.711Z,24.52
2023-12-27T02:25:53.451Z,21.85
2023-12-27T02:30:57.397Z,20.27
2023-12-27T02:33:28.144Z,20.63
2023-12-27T02:35:58.757Z,21.55
2023-12-27T02:38:29.334Z,18.83
2023-12-27T02:41:02.651Z,18.17
2023-12-27T02:43:33.271Z,23.30
2023-12-27T02:46:05.291Z,20.38
2023-12-27T02:48:35.944Z,19.08
2023-12-27T02:51:06.804Z,19.20
2023-12-27T02:53:37.386Z,22.90
2023-12-27T02:56:11.057Z,14.57
2023-12-27T02:58:42.657Z,15.30
2023-12-27T03:01:13.115Z,16.65
2023-12-27T03:03:43.577Z,13.50
2023-12-27T03:06:17.096Z,15.75
2023-12-27T03:08:54.723Z,15.32
2023-12-27T03:11:27.030Z,16.35
2023-12-27T03:13:57.698Z,13.95
2023-12-27T03:16:30.006Z,19.33
2023-12-27T03:19:02.400Z,21.20
2023-12-27T03:21:33.078Z,23.13
2023-12-27T03:24:03.794Z,20.55
2023-12-27T03:26:36.074Z,17.05
2023-12-27T03:29:06.682Z,18.33
2023-12-27T03:31:37.358Z,18.10
2023-12-27T03:34:08.361Z,20.92
2023-12-27T03:36:39.053Z,19.20
2023-12-27T03:39:10.643Z,21.40
2023-12-27T03:41:43.248Z,20.02
2023-12-27T03:44:13.984Z,15.10
2023-12-27T03:46:44.721Z,21.02
2023-12-27T03:49:15.477Z,18.58
2023-12-27T03:51:50.344Z,21.17
2023-12-27T03:54:21.087Z,20.65
2023-12-27T03:56:53.432Z,19.42
2023-12-27T03:59:24.072Z,19.98
2023-12-27T04:01:54.620Z,21.40
2023-12-27T04:04:25.271Z,24.52
2023-12-27T04:06:58.362Z,18.58
2023-12-27T04:09:34.045Z,23.13
2023-12-27T04:12:06.773Z,21.08
2023-12-27T04:14:38.856Z,24.40
2023-12-27T04:17:09.358Z,19.27
2023-12-27T04:19:39.860Z,21.27
2023-12-27T04:22:10.872Z,25.73
2023-12-27T04:24:41.577Z,22.52
2023-12-27T04:27:18.717Z,20.48
2023-12-27T04:29:49.500Z,19.88
2023-12-27T04:32:20.052Z,21.33
2023-12-27T04:34:50.619Z,22.13
2023-12-27T04:37:22.999Z,18.85
2023-12-27T04:39:53.533Z,20.00
2023-12-27T04:44:56.477Z,18.60
2023-12-27T04:47:29.714Z,21.77
2023-12-27T04:50:00.758Z,21.10
2023-12-27T04:52:31.446Z,24.35
2023-12-27T04:55:08.712Z,19.95
2023-12-27T04:57:41.357Z,20.08
2023-12-27T05:00:12.651Z,16.42
2023-12-27T05:02:43.246Z,20.00
2023-12-27T05:05:13.881Z,22.33
2023-12-27T05:07:46.457Z,20.80
2023-12-27T05:12:55.473Z,15.50
2023-12-27T05:15:26.164Z,16.92
2023-12-27T05:17:57.218Z,16.40
2023-12-27T05:20:27.872Z,15.00
2023-12-27T05:22:58.374Z,14.70
2023-12-27T05:25:29.027Z,16.15
2023-12-27T05:28:01.348Z,16.35
2023-12-27T05:30:34.308Z,16.17
2023-12-27T05:33:05.173Z,15.85
2023-12-27T05:35:35.936Z,15.25
2023-12-27T05:38:06.848Z,13.15
2023-12-27T05:40:37.546Z,12.82
2023-12-27T05:43:09.867Z,12.57
2023-12-27T05:45:40.560Z,13.55
2023-12-27T05:48:11.795Z,14.40
2023-12-27T05:50:42.511Z,11.65
2023-12-27T05:53:15.040Z,11.25
2023-12-27T05:55:46.009Z,12.10
2023-12-27T05:58:18.156Z,12.07
2023-12-27T06:00:48.765Z,13.38
2023-12-27T06:03:19.533Z,15.13
2023-12-27T06:05:50.290Z,12.82
2023-12-27T06:08:23.808Z,10.48
2023-12-27T06:10:56.072Z,11.18
2023-12-27T06:13:28.278Z,8.18
2023-12-27T06:16:00.034Z,9.77
2023-12-27T06:18:30.634Z,13.38
2023-12-27T06:21:01.302Z,10.85
2023-12-27T06:23:32.554Z,10.80
2023-12-27T06:26:03.113Z,7.97
2023-12-27T06:28:35.425Z,7.78
2023-12-27T06:31:06.682Z,7.13
2023-12-27T06:33:37.458Z,7.10
2023-12-27T06:36:09.660Z,6.95
2023-12-27T06:38:40.687Z,11.90
2023-12-27T06:41:12.480Z,11.80
2023-12-27T06:43:45.891Z,6.47
2023-12-27T06:46:16.435Z,8.88
2023-12-27T06:48:47.083Z,13.80
2023-12-27T06:51:20.330Z,13.88
2023-12-27T06:53:51.159Z,10.90
2023-12-27T06:56:21.661Z,6.85
2023-12-27T06:58:53.986Z,6.15
2023-12-27T07:01:24.794Z,6.82
2023-12-27T07:03:55.556Z,8.18
2023-12-27T07:06:26.315Z,9.07
2023-12-27T07:08:57.679Z,8.13
2023-12-27T07:11:29.126Z,7.10
2023-12-27T07:14:01.354Z,6.40
2023-12-27T07:16:31.900Z,7.20
2023-12-27T07:19:02.559Z,8.95
2023-12-27T07:21:33.348Z,7.97
2023-12-27T07:24:04.093Z,8.05
2023-12-27T07:26:35.456Z,12.32
2023-12-27T07:29:07.945Z,8.05
2023-12-27T07:34:08.166Z,7.97
2023-12-27T07:36:38.879Z,8.38
2023-12-27T07:39:11.930Z,7.60
2023-12-27T07:41:42.608Z,8.38
2023-12-27T07:44:15.079Z,7.55
2023-12-27T07:46:45.744Z,7.25
2023-12-27T07:49:16.380Z,6.40
2023-12-27T07:51:47.511Z,6.22
2023-12-27T07:54:18.109Z,6.47
2023-12-27T07:56:48.742Z,7.57
2023-12-27T07:59:21.052Z,7.20
2023-12-27T08:01:51.711Z,7.55
2023-12-27T08:04:22.552Z,5.80
2023-12-27T08:06:54.644Z,6.75
2023-12-27T08:09:25.539Z,7.50
2023-12-27T08:11:56.914Z,7.30
2023-12-27T08:14:29.146Z,7.38
2023-12-27T08:16:59.845Z,7.90
2023-12-27T08:19:30.505Z,7.65
2023-12-27T08:22:01.128Z,7.60
2023-12-27T08:24:31.876Z,7.13
2023-12-27T08:27:02.567Z,7.28
2023-12-27T08:29:35.195Z,7.63
2023-12-27T08:32:08.727Z,7.63
2023-12-27T08:34:39.326Z,7.47
2023-12-27T08:37:09.860Z,6.93
2023-12-27T08:39:40.933Z,7.68
2023-12-27T08:42:14.792Z,7.90
2023-12-27T08:44:47.136Z,7.32
2023-12-27T08:47:17.839Z,7.60
2023-12-27T08:49:48.431Z,8.55
2023-12-27T08:52:19.044Z,8.57
2023-12-27T08:54:49.654Z,7.95
2023-12-27T08:57:20.261Z,8.73
2023-12-27T08:59:52.520Z,8.27
2023-12-27T09:02:23.753Z,7.30
2023-12-27T09:04:54.363Z,7.97
2023-12-27T09:07:24.941Z,8.52
2023-12-27T09:09:59.450Z,7.93
2023-12-27T09:12:30.362Z,8.55
2023-12-27T09:15:02.528Z,9.23
2023-12-27T09:17:33.002Z,8.07
2023-12-27T09:20:03.477Z,8.73
2023-12-27T09:22:37.609Z,8.07
2023-12-27T09:25:08.473Z,8.23
2023-12-27T09:27:38.946Z,7.95
2023-12-27T09:30:11.952Z,8.02
2023-12-27T09:32:42.919Z,7.82
2023-12-27T09:35:13.400Z,10.68
2023-12-27T09:37:43.856Z,8.65
2023-12-27T09:40:14.918Z,9.45
2023-12-27T09:42:45.777Z,8.75
2023-12-27T09:45:23.653Z,8.38
2023-12-27T09:47:57.052Z,9.07
2023-12-27T09:50:27.986Z,8.60
2023-12-27T09:52:59.459Z,8.50
2023-12-27T09:55:29.985Z,8.60
2023-12-27T09:58:01.330Z,8.05
2023-12-27T10:00:35.999Z,8.57
2023-12-27T10:03:09.143Z,8.65
2023-12-27T10:05:46.674Z,8.80
2023-12-27T10:08:17.657Z,9.38
2023-12-27T10:10:48.798Z,9.82
2023-12-27T10:13:19.746Z,9.20
2023-12-27T10:15:54.932Z,8.85
2023-12-27T10:18:25.535Z,8.45
2023-12-27T10:20:57.534Z,7.18
2023-12-27T10:23:30.463Z,8.48
2023-12-27T10:26:01.112Z,8.20
2023-12-27T10:28:31.609Z,7.93
2023-12-27T10:31:04.693Z,8.20
2023-12-27T10:33:44.887Z,7.65
2023-12-27T10:36:18.175Z,7.82
2023-12-27T10:38:49.161Z,8.55
2023-12-27T10:41:20.073Z,7.50
2023-12-27T10:43:53.033Z,7.85
2023-12-27T10:46:25.321Z,9.15
2023-12-27T10:48:59.166Z,8.65
2023-12-27T10:51:31.107Z,8.57
2023-12-27T10:54:02.946Z,9.13
2023-12-27T10:56:43.549Z,7.65
2023-12-27T10:59:14.111Z,9.10
2023-12-27T11:01:47.675Z,6.80
2023-12-27T11:04:19.869Z,7.38
2023-12-27T11:06:52.072Z,8.23
2023-12-27T11:09:22.874Z,7.60
2023-12-27T11:11:57.548Z,7.25
2023-12-27T11:14:35.200Z,8.63
2023-12-27T11:17:09.654Z,9.55
2023-12-27T11:19:40.505Z,7.70
2023-12-27T11:22:11.058Z,14.90
2023-12-27T11:24:42.462Z,15.65
2023-12-27T11:27:12.937Z,11.82
2023-12-27T11:29:43.571Z,13.30
2023-12-27T11:32:15.911Z,13.73
2023-12-27T11:34:46.634Z,10.20
2023-12-27T11:37:18.297Z,10.90
2023-12-27T11:39:53.423Z,12.20
2023-12-27T11:42:25.689Z,11.45
2023-12-27T11:44:58.644Z,13.38
2023-12-27T11:47:31.293Z,10.68
2023-12-27T11:50:22.581Z,10.55
2023-12-27T11:52:59.815Z,10.98
2023-12-27T11:55:37.593Z,11.23
2023-12-27T11:58:08.121Z,11.60
2023-12-27T12:00:39.069Z,10.88
2023-12-27T12:03:19.037Z,10.85
2023-12-27T12:06:05.571Z,12.70
2023-12-27T12:08:41.539Z,12.55
2023-12-27T12:11:15.694Z,10.32
2023-12-27T12:13:51.687Z,11.88
2023-12-27T12:16:22.873Z,13.45
2023-12-27T12:18:55.558Z,11.43
2023-12-27T12:21:31.909Z,12.57
2023-12-27T12:24:10.237Z,12.15
2023-12-27T12:26:40.827Z,13.38
2023-12-27T12:29:11.384Z,15.93
2023-12-27T12:31:46.845Z,14.98
2023-12-27T12:34:21.300Z,17.95
2023-12-27T12:36:52.378Z,13.95
2023-12-27T12:39:23.265Z,15.35
2023-12-27T12:41:54.367Z,14.68
2023-12-27T12:44:26.162Z,12.65
2023-12-27T12:46:57.738Z,11.25
2023-12-27T12:49:33.966Z,12.10
2023-12-27T12:52:10.635Z,14.40
2023-12-27T12:54:41.227Z,15.90
2023-12-27T12:57:11.875Z,16.23
2023-12-27T12:59:44.594Z,12.00
2023-12-27T13:04:55.358Z,11.48
2023-12-27T13:07:29.953Z,10.65
2023-12-27T13:10:02.545Z,16.05
2023-12-27T13:12:39.016Z,12.70
2023-12-27T13:15:13.215Z,13.82
2023-12-27T13:17:43.994Z,15.20
2023-12-27T13:20:16.512Z,15.68
2023-12-27T13:22:49.388Z,14.05
2023-12-27T13:25:20.594Z,15.07
2023-12-27T13:27:58.405Z,13.80
2023-12-27T13:30:36.556Z,14.90
2023-12-27T13:33:20.063Z,14.50
2023-12-27T13:35:54.737Z,12.00
2023-12-27T13:38:25.489Z,14.95
2023-12-27T13:40:56.873Z,15.68
2023-12-27T13:43:32.010Z,24.38
2023-12-27T13:46:07.861Z,19.73
2023-12-27T13:48:38.756Z,21.02
2023-12-27T13:51:11.306Z,14.80
2023-12-27T13:53:41.866Z,19.27
2023-12-27T13:56:21.428Z,18.27
2023-12-27T13:58:53.807Z,18.17
2023-12-27T14:01:25.203Z,22.20
2023-12-27T14:03:56.517Z,21.88
2023-12-27T14:06:31.035Z,25.00
2023-12-27T14:09:01.647Z,21.48
2023-12-27T14:11:34.771Z,16.38
2023-12-27T14:14:08.506Z,17.73
2023-12-27T14:16:44.191Z,16.50
2023-12-27T14:19:16.106Z,16.33
2023-12-27T14:21:49.714Z,18.00
2023-12-27T14:24:24.539Z,15.50
2023-12-27T14:26:58.111Z,14.45
2023-12-27T14:29:30.288Z,18.55
2023-12-27T14:32:01.173Z,17.77
2023-12-27T14:34:39.329Z,19.40
2023-12-27T14:39:42.301Z,14.35
2023-12-27T14:42:12.892Z,14.88
2023-12-27T14:44:43.541Z,15.35
2023-12-27T14:47:14.768Z,15.70
2023-12-27T14:49:48.427Z,15.45
2023-12-27T14:52:21.050Z,15.55
2023-12-27T14:54:53.875Z,15.95
2023-12-27T14:57:24.855Z,15.18
2023-12-27T14:59:57.492Z,16.15
2023-12-27T15:02:28.353Z,15.38
2023-12-27T15:04:58.917Z,16.85
2023-12-27T15:07:31.098Z,16.05
2023-12-27T15:10:08.712Z,14.88
2023-12-27T15:12:40.288Z,16.60
2023-12-27T15:15:11.860Z,13.57
2023-12-27T15:17:45.614Z,15.35
2023-12-27T15:20:21.060Z,15.27
2023-12-27T15:22:55.870Z,16.17
2023-12-27T15:25:26.435Z,16.05
2023-12-27T15:27:58.266Z,15.77
2023-12-27T15:30:31.225Z,16.00
2023-12-27T15:35:31.447Z,18.02
2023-12-27T15:38:08.702Z,18.15
2023-12-27T15:40:39.383Z,17.17
2023-12-27T15:43:09.867Z,17.63
2023-12-27T15:45:40.458Z,17.40
2023-12-27T15:48:11.156Z,17.33
2023-12-27T15:50:41.962Z,16.42
2023-12-27T15:53:14.648Z,17.75
2023-12-27T15:55:47.607Z,18.75
2023-12-27T15:58:18.187Z,19.70
2023-12-27T16:00:51.456Z,22.45
2023-12-27T16:03:29.686Z,23.15
2023-12-27T16:06:10.631Z,22.88
2023-12-27T16:08:52.280Z,22.02
2023-12-27T16:11:25.850Z,21.85
2023-12-27T16:13:57.063Z,20.77
2023-12-27T16:16:28.501Z,21.20
2023-12-27T16:19:08.204Z,19.88
2023-12-27T16:21:51.841Z,21.50
2023-12-27T16:24:36.118Z,18.77
2023-12-27T16:27:16.849Z,22.10
2023-12-27T16:29:48.238Z,24.50
2023-12-27T16:32:21.039Z,20.85
2023-12-27T16:34:54.288Z,21.02
2023-12-27T16:37:30.725Z,20.13
2023-12-27T16:40:17.045Z,19.80
2023-12-27T16:42:55.934Z,20.55
2023-12-27T16:45:30.638Z,19.42
2023-12-27T16:48:05.518Z,19.85
2023-12-27T16:50:36.070Z,19.98
2023-12-27T16:53:06.973Z,20.80
2023-12-27T16:55:39.453Z,17.63
2023-12-27T16:58:10.899Z,17.52
2023-12-27T17:00:44.580Z,16.58
2023-12-27T17:03:16.626Z,16.10
2023-12-27T17:05:49.562Z,16.55
2023-12-27T17:08:28.193Z,17.38
2023-12-27T17:11:03.404Z,17.75
2023-12-27T17:13:36.449Z,19.20
2023-12-27T17:16:08.086Z,16.85
2023-12-27T17:18:38.924Z,18.50
2023-12-27T17:21:12.658Z,20.55
2023-12-27T17:23:43.197Z,21.55
2023-12-27T17:26:15.876Z,19.30
2023-12-27T17:28:46.462Z,18.70
2023-12-27T17:31:17.113Z,19.02
2023-12-27T17:33:47.754Z,19.67
2023-12-27T17:36:19.089Z,18.88
2023-12-27T17:38:49.755Z,18.92
2023-12-27T17:41:22.129Z,20.33
2023-12-27T17:43:52.782Z,20.92
2023-12-27T17:46:23.392Z,18.27
2023-12-27T17:48:54.099Z,19.23
2023-12-27T17:51:24.940Z,18.05
2023-12-27T17:53:58.489Z,17.20
2023-12-27T17:56:32.552Z,18.27
2023-12-27T17:59:03.172Z,15.55
2023-12-27T18:01:54.587Z,16.08
2023-12-27T18:04:26.042Z,17.17
2023-12-27T18:06:57.241Z,17.30
2023-12-27T18:09:28.564Z,16.42
2023-12-27T18:12:02.648Z,17.25
2023-12-27T18:14:33.304Z,17.27
2023-12-27T18:17:12.639Z,16.90
2023-12-27T18:19:48.582Z,18.60
2023-12-27T18:22:19.335Z,17.00
2023-12-27T18:24:51.210Z,18.10
2023-12-27T18:27:27.175Z,17.38
2023-12-27T18:29:57.863Z,17.08
2023-12-27T18:32:29.211Z,17.35
2023-12-27T18:35:00.092Z,15.32
2023-12-27T18:37:33.657Z,16.65
2023-12-27T18:40:04.795Z,15.82
2023-12-27T18:42:37.205Z,17.17
2023-12-27T18:45:16.201Z,17.10
2023-12-27T18:47:49.421Z,17.25
2023-12-27T18:50:22.614Z,15.93
2023-12-27T18:52:53.356Z,16.70
2023-12-27T18:55:24.078Z,17.92
2023-12-27T18:57:56.473Z,18.15
2023-12-27T19:00:27.258Z,16.92
2023-12-27T19:03:00.577Z,16.15
2023-12-27T19:05:31.345Z,17.67
2023-12-27T19:08:01.789Z,18.60
2023-12-27T19:10:34.840Z,18.20
2023-12-27T19:13:10.814Z,19.15
2023-12-27T19:15:41.419Z,19.50
2023-12-27T19:18:12.219Z,19.08
2023-12-27T19:20:45.133Z,18.58
2023-12-27T19:23:15.710Z,21.40
2023-12-27T19:25:46.257Z,19.75
2023-12-27T19:28:18.545Z,21.40
2023-12-27T19:30:52.826Z,18.63
2023-12-27T19:33:23.763Z,22.33
2023-12-27T19:35:54.325Z,22.45
2023-12-27T19:38:25.043Z,22.48
2023-12-27T19:40:55.615Z,22.90
2023-12-27T19:43:28.028Z,20.55
2023-12-27T19:45:58.945Z,22.67
2023-12-27T19:48:30.602Z,23.08
2023-12-27T19:51:01.551Z,22.52
2023-12-27T19:53:32.066Z,23.30
2023-12-27T19:56:03.665Z,23.45
2023-12-27T19:58:35.901Z,22.77
2023-12-27T20:01:06.833Z,23.17
2023-12-27T20:03:40.735Z,22.98
2023-12-27T20:06:15.266Z,24.25
2023-12-27T20:08:45.945Z,23.73
2023-12-27T20:11:19.745Z,23.88
2023-12-27T20:13:54.626Z,23.98
2023-12-27T20:16:25.873Z,22.58
2023-12-27T20:18:56.670Z,23.33
2023-12-27T20:21:27.563Z,22.65
2023-12-27T20:23:59.062Z,23.67
2023-12-27T20:26:29.734Z,24.08
2023-12-27T20:29:04.607Z,23.65
2023-12-27T20:31:44.216Z,24.83
2023-12-27T20:34:17.453Z,25.35
2023-12-27T20:36:48.171Z,25.25
2023-12-27T20:39:18.838Z,25.17
2023-12-27T20:41:56.468Z,24.38
2023-12-27T20:44:32.521Z,23.52
2023-12-27T20:47:03.773Z,24.25
2023-12-27T20:49:35.796Z,23.20
2023-12-27T20:52:12.034Z,23.80
2023-12-27T20:54:45.596Z,23.20
2023-12-27T20:57:16.717Z,23.30
2023-12-27T20:59:49.752Z,23.73
2023-12-27T21:02:24.410Z,22.88
2023-12-27T21:04:55.949Z,23.52
2023-12-27T21:07:29.708Z,21.45
2023-12-27T21:10:00.651Z,21.92
2023-12-27T21:12:40.296Z,19.48
2023-12-27T21:15:16.302Z,21.58
2023-12-27T21:17:47.040Z,19.95
2023-12-27T21:20:17.701Z,21.05
2023-12-27T21:22:48.388Z,20.35
2023-12-27T21:25:18.814Z,21.00
2023-12-27T21:28:13.529Z,21.27
2023-12-27T21:30:46.603Z,20.25
2023-12-27T21:33:17.264Z,20.10
2023-12-27T21:35:47.994Z,19.65
2023-12-27T21:38:21.936Z,19.45
2023-12-27T21:40:52.518Z,18.38
2023-12-27T21:43:23.321Z,20.23
2023-12-27T21:45:55.536Z,20.58
2023-12-27T21:48:26.151Z,19.10
2023-12-27T21:50:56.758Z,18.38
2023-12-27T21:53:27.226Z,19.08
2023-12-27T21:55:59.836Z,18.05
2023-12-27T21:58:31.569Z,17.77
2023-12-27T22:01:06.866Z,18.08
2023-12-27T22:03:37.329Z,17.90
2023-12-27T22:06:08.961Z,18.45
2023-12-27T22:08:41.478Z,19.55
2023-12-27T22:11:12.782Z,18.98
2023-12-27T22:13:51.413Z,19.58
2023-12-27T22:16:25.236Z,18.60
2023-12-27T22:18:59.001Z,19.25
2023-12-27T22:21:32.761Z,18.73
2023-12-27T22:24:05.239Z,18.75
2023-12-27T22:26:35.923Z,18.33
2023-12-27T22:29:08.619Z,18.17
2023-12-27T22:31:43.472Z,17.58
2023-12-27T22:34:14.337Z,18.08
2023-12-27T22:36:45.608Z,18.77
2023-12-27T22:39:18.160Z,18.45
2023-12-27T22:41:48.738Z,17.08
2023-12-27T22:44:20.958Z,18.13
2023-12-27T22:46:55.697Z,16.55
2023-12-27T22:49:26.371Z,18.83
2023-12-27T22:51:56.963Z,18.67
2023-12-27T22:54:27.640Z,17.00
2023-12-27T22:56:58.223Z,19.30
2023-12-27T22:59:28.813Z,20.33
2023-12-27T23:02:01.214Z,18.92
2023-12-27T23:04:35.922Z,18.00
2023-12-27T23:07:06.738Z,15.98
2023-12-27T23:09:38.049Z,16.58
2023-12-27T23:12:14.834Z,16.85
2023-12-27T23:14:49.961Z,15.50
2023-12-27T23:17:43.510Z,16.20
2023-12-27T23:20:14.574Z,17.38
2023-12-27T23:22:45.156Z,16.52
2023-12-27T23:25:15.979Z,14.57
2023-12-27T23:27:46.736Z,14.82
2023-12-27T23:30:17.982Z,15.32
2023-12-27T23:32:51.723Z,14.18
2023-12-27T23:35:22.784Z,15.45
2023-12-27T23:37:53.361Z,14.15
2023-12-27T23:40:23.928Z,15.23
2023-12-27T23:42:54.502Z,16.00
2023-12-27T23:45:25.009Z,15.57
2023-12-27T23:47:57.997Z,17.15
2023-12-27T23:50:28.820Z,19.80
2023-12-27T23:52:59.347Z,17.90
2023-12-27T23:55:30.070Z,17.55
2023-12-27T23:58:00.954Z,19.20
